createdAt,value
2016-03-31T07:06:12.031Z,718.02
2016-03-31T07:06:24.374Z,717.81
2016-03-31T07:06:37.671Z,718.02
2016-03-31T07:06:50.937Z,717.86
2016-03-31T07:07:04.220Z,717.97
2016-03-31T07:07:18.048Z,718.16
2016-03-31T07:07:30.595Z,717.99
2016-03-31T07:07:43.720Z,718.21
2016-03-31T07:07:57.006Z,718.02
2016-03-31T07:08:10.369Z,718.15
2016-03-31T07:08:23.697Z,718.06
2016-03-31T07:08:37.025Z,718.22
2016-03-31T07:08:50.353Z,718.14
2016-03-31T07:09:03.636Z,718.08
2016-03-31T07:09:16.933Z,718.1
2016-03-31T07:09:30.246Z,718.24
2016-03-31T07:09:43.527Z,718.2
2016-03-31T07:09:56.839Z,718.14
2016-03-31T07:10:10.186Z,718.1
2016-03-31T07:10:23.436Z,718.1
2016-03-31T07:10:36.749Z,717.95
2016-03-31T07:10:50.046Z,718.08
2016-03-31T07:11:03.330Z,717.88
2016-03-31T07:11:16.642Z,718.18
2016-03-31T07:11:29.924Z,718.11
2016-03-31T07:11:43.205Z,718.07
2016-03-31T07:11:56.502Z,718.13
2016-03-31T07:12:09.769Z,718.05
2016-03-31T07:12:23.066Z,717.91
2016-03-31T07:12:36.347Z,717.9
2016-03-31T07:12:49.613Z,718.25
2016-03-31T07:13:02.913Z,717.97
2016-03-31T07:13:16.194Z,718.18
2016-03-31T07:13:29.475Z,718.1
2016-03-31T07:13:42.757Z,718.16
2016-03-31T07:13:56.022Z,718.26
2016-03-31T07:14:09.322Z,718.3
2016-03-31T07:14:22.588Z,718.2
2016-03-31T07:14:35.869Z,718.23
2016-03-31T07:14:49.166Z,718.32
2016-03-31T07:15:02.449Z,718.5
2016-03-31T07:15:15.746Z,718.22
2016-03-31T07:15:29.090Z,718.22
2016-03-31T07:15:42.355Z,718.16
2016-03-31T07:15:55.637Z,718.21
2016-03-31T07:16:08.922Z,718.23
2016-03-31T07:16:22.203Z,718.49
2016-03-31T07:16:35.484Z,718.35
2016-03-31T07:16:48.750Z,718.37
2016-03-31T07:17:02.033Z,718.3
2016-03-31T07:17:15.315Z,718.32
2016-03-31T07:17:28.611Z,718.42
2016-03-31T07:17:42.236Z,718.38
2016-03-31T07:17:55.627Z,718.35
2016-03-31T07:18:08.910Z,718.33
2016-03-31T07:18:22.192Z,718.33
2016-03-31T07:18:35.473Z,718.59
2016-03-31T07:18:48.754Z,718.31
2016-03-31T07:19:02.039Z,718.73
2016-03-31T07:19:15.149Z,718.53
2016-03-31T07:19:28.430Z,718.41
2016-03-31T07:19:41.711Z,718.29
2016-03-31T07:19:55.008Z,718.47
2016-03-31T07:20:08.276Z,718.35
2016-03-31T07:20:21.573Z,718.49
2016-03-31T07:20:34.854Z,718.49
2016-03-31T07:20:48.198Z,718.49
2016-03-31T07:21:01.481Z,718.53
2016-03-31T07:21:14.762Z,718.73
2016-03-31T07:21:28.043Z,718.47
2016-03-31T07:21:41.325Z,718.24
2016-03-31T07:21:54.621Z,718.38
2016-03-31T07:22:07.921Z,718.24
2016-03-31T07:22:21.234Z,718.28
2016-03-31T07:22:34.499Z,718.25
2016-03-31T07:22:47.765Z,718.3
2016-03-31T07:23:01.050Z,718.8
2016-03-31T07:23:14.363Z,718.28
2016-03-31T07:23:27.675Z,718.37
2016-03-31T07:23:40.957Z,718.45
2016-03-31T07:23:54.238Z,718.41
2016-03-31T07:24:07.521Z,718.34
2016-03-31T07:24:20.662Z,718.42
2016-03-31T07:24:33.802Z,718.38
2016-03-31T07:24:47.084Z,718.27
2016-03-31T07:25:00.336Z,718.35
2016-03-31T07:25:13.617Z,718.32
2016-03-31T07:25:26.914Z,718.31
2016-03-31T07:25:40.226Z,718.35
2016-03-31T07:25:53.539Z,718.39
2016-03-31T07:26:06.823Z,718.64
2016-03-31T07:26:20.104Z,718.34
2016-03-31T07:26:33.401Z,718.36
2016-03-31T07:26:46.714Z,718.28
2016-03-31T07:27:00.029Z,718.36
2016-03-31T07:27:13.342Z,718.26
2016-03-31T07:27:26.623Z,718.33
2016-03-31T07:27:39.904Z,718.37
2016-03-31T07:27:53.185Z,718.23
2016-03-31T07:28:06.500Z,718.48
2016-03-31T07:28:19.812Z,718.53
2016-03-31T07:28:33.078Z,718.38
2016-03-31T07:28:46.359Z,718.3
2016-03-31T07:28:59.640Z,718.19
2016-03-31T07:29:12.925Z,718.2
2016-03-31T07:29:26.222Z,717.92
2016-03-31T07:29:39.503Z,718.07
2016-03-31T07:29:52.784Z,718.31
2016-03-31T07:30:06.100Z,718.45
2016-03-31T07:30:19.412Z,718.26
2016-03-31T07:30:32.693Z,718.37
2016-03-31T07:30:45.975Z,718.42
2016-03-31T07:30:59.240Z,718.15
2016-03-31T07:31:12.555Z,718.34
2016-03-31T07:31:25.867Z,718.3
2016-03-31T07:31:39.133Z,718.32
2016-03-31T07:31:51.680Z,718.37
2016-03-31T07:32:04.964Z,718.21
2016-03-31T07:32:18.261Z,718.34
2016-03-31T07:32:31.558Z,718.19
2016-03-31T07:32:44.917Z,718.27
2016-03-31T07:32:58.198Z,718.23
2016-03-31T07:33:11.483Z,718.08
2016-03-31T07:33:24.811Z,718.06
2016-03-31T07:33:38.092Z,718.26
2016-03-31T07:33:51.358Z,718.37
2016-03-31T07:34:04.642Z,718.49
2016-03-31T07:34:17.939Z,718.32
2016-03-31T07:34:31.236Z,718.27
2016-03-31T07:34:44.517Z,718.43
2016-03-31T07:34:57.782Z,718.33
2016-03-31T07:35:11.050Z,718.24
2016-03-31T07:35:24.347Z,718.16
2016-03-31T07:35:37.644Z,718.09
2016-03-31T07:35:50.941Z,718.28
2016-03-31T07:36:04.209Z,718.37
2016-03-31T07:36:17.491Z,718.19
2016-03-31T07:36:30.819Z,718.11
2016-03-31T07:36:44.116Z,718.03
2016-03-31T07:36:57.444Z,718.4
2016-03-31T07:37:10.712Z,718.22
2016-03-31T07:37:23.994Z,718.12
2016-03-31T07:37:37.275Z,718.23
2016-03-31T07:37:50.572Z,718.31
2016-03-31T07:38:03.902Z,718.18
2016-03-31T07:38:17.167Z,718.33
2016-03-31T07:38:30.449Z,718.46
2016-03-31T07:38:43.714Z,718.28
2016-03-31T07:38:56.855Z,718.35
2016-03-31T07:39:24.280Z,718.16
2016-03-31T07:39:37.545Z,718.3
2016-03-31T07:39:50.795Z,718.27
2016-03-31T07:40:04.048Z,718.19
2016-03-31T07:40:17.330Z,718.28
2016-03-31T07:40:30.595Z,718.42
2016-03-31T07:40:43.877Z,718.46
2016-03-31T07:40:57.158Z,718.27
2016-03-31T07:41:10.457Z,718.45
2016-03-31T07:41:23.769Z,718.4
2016-03-31T07:41:37.035Z,718.47
2016-03-31T07:41:50.300Z,718.36
2016-03-31T07:42:03.600Z,718.32
2016-03-31T07:42:16.897Z,718.45
2016-03-31T07:42:30.194Z,718.62
2016-03-31T07:42:43.507Z,718.62
2016-03-31T07:42:56.788Z,718.47
2016-03-31T07:43:10.072Z,718.54
2016-03-31T07:43:23.353Z,718.52
2016-03-31T07:43:36.635Z,718.16
2016-03-31T07:43:49.978Z,718.51
2016-03-31T07:44:03.278Z,718.49
2016-03-31T07:44:16.544Z,718.64
2016-03-31T07:44:29.809Z,718.57
2016-03-31T07:44:43.106Z,718.41
2016-03-31T07:44:56.419Z,718.43
2016-03-31T07:45:09.796Z,718.38
2016-03-31T07:45:24.030Z,718.58
2016-03-31T07:45:37.952Z,718.12
2016-03-31T07:45:52.015Z,718.51
2016-03-31T07:46:05.283Z,718.41
2016-03-31T07:46:18.549Z,718.3
2016-03-31T07:46:31.814Z,718.65
2016-03-31T07:46:45.111Z,718.36
2016-03-31T07:46:58.408Z,718.47
2016-03-31T07:47:11.676Z,718.46
2016-03-31T07:47:25.004Z,718.59
2016-03-31T07:47:38.379Z,718.54
2016-03-31T07:47:51.770Z,718.67
2016-03-31T07:48:05.039Z,717.92
2016-03-31T07:48:18.336Z,718.52
2016-03-31T07:48:31.602Z,718.43
2016-03-31T07:48:44.883Z,718.32
2016-03-31T07:48:58.164Z,718.54
2016-03-31T07:49:11.463Z,718.57
2016-03-31T07:49:24.729Z,718.56
2016-03-31T07:49:38.010Z,718.53
2016-03-31T07:49:51.479Z,718.61
2016-03-31T07:50:04.779Z,718.53
2016-03-31T07:50:17.935Z,718.56
2016-03-31T07:50:31.216Z,718.47
2016-03-31T07:50:44.513Z,718.63
2016-03-31T07:50:57.810Z,718.63
2016-03-31T07:51:11.125Z,718.72
2016-03-31T07:51:24.453Z,718.52
2016-03-31T07:51:37.750Z,718.69
2016-03-31T07:51:51.063Z,718.6
2016-03-31T07:52:04.362Z,718.51
2016-03-31T07:52:17.627Z,718.59
2016-03-31T07:52:30.909Z,718.49
2016-03-31T07:52:44.190Z,718.62
2016-03-31T07:52:57.455Z,718.63
2016-03-31T07:53:10.755Z,718.65
2016-03-31T07:53:24.068Z,718.64
2016-03-31T07:53:37.333Z,718.26
2016-03-31T07:53:50.490Z,718.5
2016-03-31T07:54:03.773Z,718.45
2016-03-31T07:54:17.070Z,718.56
2016-03-31T07:54:30.367Z,718.56
2016-03-31T07:54:43.632Z,718.62
2016-03-31T07:54:56.898Z,718.63
2016-03-31T07:55:10.292Z,718.68
2016-03-31T07:55:23.604Z,718.62
2016-03-31T07:55:36.901Z,718.53
2016-03-31T07:55:50.182Z,718.6
2016-03-31T07:56:03.451Z,718.71
2016-03-31T07:56:16.748Z,718.54
2016-03-31T07:56:30.045Z,718.71
2016-03-31T07:56:43.388Z,718.58
2016-03-31T07:56:56.654Z,718.68
2016-03-31T07:57:09.781Z,718.86
2016-03-31T07:57:23.062Z,718.79
2016-03-31T07:57:36.343Z,718.76
2016-03-31T07:57:49.625Z,718.54
2016-03-31T07:58:02.893Z,718.46
2016-03-31T07:58:16.175Z,718.39
2016-03-31T07:58:29.487Z,718.68
2016-03-31T07:58:42.815Z,718.68
2016-03-31T07:58:56.096Z,718.63
2016-03-31T07:59:09.365Z,718.57
2016-03-31T07:59:22.631Z,718.65
2016-03-31T07:59:35.928Z,718.49
2016-03-31T07:59:49.240Z,718.59
2016-03-31T08:00:02.556Z,718.73
2016-03-31T08:00:15.884Z,718.62
2016-03-31T08:00:29.149Z,718.8
2016-03-31T08:00:42.415Z,718.36
2016-03-31T08:00:55.727Z,718.33
2016-03-31T08:01:09.026Z,718.69
2016-03-31T08:01:22.339Z,718.55
2016-03-31T08:01:35.604Z,718.41
2016-03-31T08:01:48.886Z,718.36
2016-03-31T08:02:02.170Z,718.33
2016-03-31T08:02:15.514Z,718.66
2016-03-31T08:02:28.795Z,718.54
2016-03-31T08:02:42.170Z,718.62
2016-03-31T08:02:55.498Z,718.44
2016-03-31T08:03:08.797Z,718.48
2016-03-31T08:03:22.063Z,718.38
2016-03-31T08:03:35.344Z,718.42
2016-03-31T08:03:48.625Z,718.36
2016-03-31T08:04:01.894Z,718.48
2016-03-31T08:04:15.159Z,718.56
2016-03-31T08:04:28.456Z,718.37
2016-03-31T08:04:41.722Z,718.19
2016-03-31T08:04:55.003Z,718.36
2016-03-31T08:05:08.272Z,718.92
2016-03-31T08:05:21.553Z,718.55
2016-03-31T08:05:35.147Z,718.55
2016-03-31T08:05:48.412Z,718.4
2016-03-31T08:06:01.712Z,718.62
2016-03-31T08:06:14.993Z,718.52
2016-03-31T08:06:28.275Z,718.44
2016-03-31T08:06:41.556Z,718.31
2016-03-31T08:06:54.822Z,718.42
2016-03-31T08:07:07.793Z,718.61
2016-03-31T08:07:21.059Z,718.52
2016-03-31T08:07:34.371Z,718.9
2016-03-31T08:07:47.637Z,718.44
2016-03-31T08:08:00.952Z,718.28
2016-03-31T08:08:14.233Z,718.29
2016-03-31T08:08:27.530Z,718.23
2016-03-31T08:08:40.811Z,718.39
2016-03-31T08:08:54.077Z,718.47
2016-03-31T08:09:07.376Z,718.64
2016-03-31T08:09:20.658Z,718.33
2016-03-31T08:09:33.939Z,718.36
2016-03-31T08:09:47.205Z,718.37
2016-03-31T08:10:00.504Z,718.15
2016-03-31T08:10:13.770Z,718.46
2016-03-31T08:10:27.051Z,718.35
2016-03-31T08:10:40.333Z,718.41
2016-03-31T08:10:53.598Z,718.4
2016-03-31T08:11:06.867Z,718.4
2016-03-31T08:11:20.117Z,718.36
2016-03-31T08:11:33.398Z,718.43
2016-03-31T08:11:46.664Z,718.52
2016-03-31T08:11:59.945Z,718.65
2016-03-31T08:12:13.291Z,718.46
2016-03-31T08:12:26.603Z,718.45
2016-03-31T08:12:39.900Z,718.53
2016-03-31T08:12:53.197Z,718.61
2016-03-31T08:13:06.466Z,718.82
2016-03-31T08:13:19.747Z,718.76
2016-03-31T08:13:33.012Z,718.53
2016-03-31T08:13:46.325Z,718.64
2016-03-31T08:13:59.591Z,718.7
2016-03-31T08:14:12.889Z,718.68
2016-03-31T08:14:26.171Z,718.44
2016-03-31T08:14:39.468Z,718.5
2016-03-31T08:14:52.780Z,718.61
2016-03-31T08:15:06.064Z,718.85
2016-03-31T08:15:19.346Z,718.94
2016-03-31T08:15:32.627Z,718.61
2016-03-31T08:15:45.908Z,718.6
2016-03-31T08:15:59.408Z,718.71
2016-03-31T08:16:12.707Z,718.95
2016-03-31T08:16:26.004Z,718.33
2016-03-31T08:16:39.285Z,718.36
2016-03-31T08:16:52.566Z,718.23
2016-03-31T08:17:05.852Z,718.68
2016-03-31T08:17:19.148Z,718.47
2016-03-31T08:17:32.445Z,718.62
2016-03-31T08:17:45.758Z,718.67
2016-03-31T08:17:59.211Z,718.39
2016-03-31T08:18:12.494Z,718.4
2016-03-31T08:18:25.791Z,718.82
2016-03-31T08:18:39.072Z,718.79
2016-03-31T08:18:52.354Z,718.76
2016-03-31T08:19:05.638Z,718.74
2016-03-31T08:19:18.935Z,718.58
2016-03-31T08:19:32.232Z,718.72
2016-03-31T08:19:45.497Z,718.77
2016-03-31T08:19:58.794Z,718.65
2016-03-31T08:20:12.093Z,718.34
2016-03-31T08:20:25.374Z,718.2
2016-03-31T08:20:38.655Z,718.29
2016-03-31T08:20:51.952Z,718.34
2016-03-31T08:21:05.252Z,718.64
2016-03-31T08:21:18.533Z,718.86
2016-03-31T08:21:31.815Z,718.55
2016-03-31T08:21:45.112Z,718.75
2016-03-31T08:21:58.393Z,718.84
2016-03-31T08:22:11.536Z,718.5
2016-03-31T08:22:24.802Z,718.5
2016-03-31T08:22:38.083Z,718.45
2016-03-31T08:22:51.349Z,718.47
2016-03-31T08:23:04.632Z,718.42
2016-03-31T08:23:17.929Z,718.7
2016-03-31T08:23:31.195Z,718.79
2016-03-31T08:23:44.476Z,718.88
2016-03-31T08:23:57.773Z,718.94
2016-03-31T08:24:11.073Z,718.34
2016-03-31T08:24:24.338Z,718.5
2016-03-31T08:24:37.635Z,718.69
2016-03-31T08:24:50.948Z,718.34
2016-03-31T08:25:04.075Z,718.44
2016-03-31T08:25:17.356Z,718.61
2016-03-31T08:25:30.637Z,718.28
2016-03-31T08:25:43.934Z,718.08
2016-03-31T08:25:57.231Z,718.51
2016-03-31T08:26:10.531Z,718.39
2016-03-31T08:26:23.812Z,718.41
2016-03-31T08:26:37.078Z,718.83
2016-03-31T08:26:50.375Z,718.68
2016-03-31T08:27:03.659Z,718.49
2016-03-31T08:27:16.940Z,718.51
2016-03-31T08:27:30.206Z,718.41
2016-03-31T08:27:43.518Z,718.57
2016-03-31T08:27:56.815Z,718.48
2016-03-31T08:28:10.083Z,718.77
2016-03-31T08:28:23.364Z,718.26
2016-03-31T08:28:36.692Z,718.28
2016-03-31T08:28:49.989Z,718.41
2016-03-31T08:29:04.415Z,718.84
2016-03-31T08:29:17.696Z,718.96
2016-03-31T08:29:31.009Z,718.79
2016-03-31T08:29:44.165Z,718.59
2016-03-31T08:29:57.430Z,718.66
2016-03-31T08:30:10.667Z,718.7
2016-03-31T08:30:23.979Z,718.97
2016-03-31T08:30:37.292Z,719.01
2016-03-31T08:30:50.573Z,718.65
2016-03-31T08:31:03.842Z,718.62
2016-03-31T08:31:17.107Z,718.8
2016-03-31T08:31:30.420Z,718.36
2016-03-31T08:31:43.920Z,718.43
2016-03-31T08:31:57.248Z,718.67
2016-03-31T08:32:10.547Z,718.34
2016-03-31T08:32:23.812Z,718.33
2016-03-31T08:32:37.078Z,718.6
2016-03-31T08:32:50.484Z,718.84
2016-03-31T08:33:03.784Z,718.57
2016-03-31T08:33:17.065Z,718.71
2016-03-31T08:33:30.362Z,718.23
2016-03-31T08:33:43.675Z,718.48
2016-03-31T08:33:56.972Z,717.97
2016-03-31T08:34:10.240Z,718.17
2016-03-31T08:34:23.522Z,718.68
2016-03-31T08:34:36.803Z,718.33
2016-03-31T08:34:50.147Z,718.54
2016-03-31T08:35:03.446Z,718.89
2016-03-31T08:35:16.728Z,718.77
2016-03-31T08:35:29.993Z,718.31
2016-03-31T08:35:43.290Z,718.48
2016-03-31T08:35:56.587Z,718.36
2016-03-31T08:36:09.902Z,718.65
2016-03-31T08:36:23.198Z,718.6
2016-03-31T08:36:36.464Z,718.55
2016-03-31T08:36:49.730Z,718.48
2016-03-31T08:37:03.014Z,718.6
2016-03-31T08:37:16.326Z,718.81
2016-03-31T08:37:29.623Z,718.44
2016-03-31T08:37:42.905Z,718.78
2016-03-31T08:37:56.186Z,718.44
2016-03-31T08:38:09.470Z,718.82
2016-03-31T08:38:22.783Z,718.54
2016-03-31T08:38:36.064Z,718.59
2016-03-31T08:38:49.345Z,718.61
2016-03-31T08:39:02.613Z,719.07
2016-03-31T08:39:15.910Z,718.99
2016-03-31T08:39:29.238Z,718.82
2016-03-31T08:39:42.550Z,718.96
2016-03-31T08:39:55.831Z,718.71
2016-03-31T08:40:09.101Z,718.65
2016-03-31T08:40:22.382Z,718.6
2016-03-31T08:40:35.695Z,718.55
2016-03-31T08:40:48.992Z,718.6
2016-03-31T08:41:02.275Z,718.83
2016-03-31T08:41:15.541Z,718.72
2016-03-31T08:41:28.666Z,718.84
2016-03-31T08:41:42.009Z,718.58
2016-03-31T08:41:55.291Z,718.67
2016-03-31T08:42:08.575Z,718.46
2016-03-31T08:42:21.825Z,718.65
2016-03-31T08:42:35.106Z,718.86
2016-03-31T08:42:48.387Z,718.84
2016-03-31T08:43:01.684Z,718.58
2016-03-31T08:43:14.968Z,718.41
2016-03-31T08:43:28.218Z,718.66
2016-03-31T08:43:41.515Z,718.4
2016-03-31T08:43:54.812Z,718.69
2016-03-31T08:44:08.095Z,718.79
2016-03-31T08:44:21.392Z,718.64
2016-03-31T08:44:34.658Z,718.7
2016-03-31T08:44:47.955Z,718.75
2016-03-31T08:45:01.252Z,718.76
2016-03-31T08:45:14.536Z,719.15
2016-03-31T08:45:27.802Z,718.72
2016-03-31T08:45:41.098Z,718.71
2016-03-31T08:45:54.395Z,718.84
2016-03-31T08:46:07.711Z,718.83
2016-03-31T08:46:21.226Z,718.68
2016-03-31T08:46:34.492Z,718.53
2016-03-31T08:46:47.789Z,718.89
2016-03-31T08:47:01.086Z,718.89
2016-03-31T08:47:14.385Z,718.78
2016-03-31T08:47:27.666Z,718.77
2016-03-31T08:47:40.947Z,718.73
2016-03-31T08:47:54.525Z,718.88
2016-03-31T08:48:07.810Z,719.02
2016-03-31T08:48:21.091Z,718.98
2016-03-31T08:48:34.372Z,718.9
2016-03-31T08:48:47.669Z,718.84
2016-03-31T08:49:00.935Z,718.47
2016-03-31T08:49:14.250Z,718.74
2016-03-31T08:49:27.516Z,718.93
2016-03-31T08:49:40.813Z,718.75
2016-03-31T08:49:54.078Z,718.84
2016-03-31T08:50:07.424Z,719
2016-03-31T08:50:20.721Z,718.91
2016-03-31T08:50:34.018Z,718.87
2016-03-31T08:50:47.283Z,718.89
2016-03-31T08:51:00.565Z,718.91
2016-03-31T08:51:13.848Z,719.08
2016-03-31T08:51:27.145Z,718.87
2016-03-31T08:51:40.410Z,718.92
2016-03-31T08:51:53.676Z,718.98
2016-03-31T08:52:06.976Z,718.93
2016-03-31T08:52:20.273Z,719.38
2016-03-31T08:52:33.538Z,718.87
2016-03-31T08:52:46.820Z,718.99
2016-03-31T08:53:00.101Z,719.3
2016-03-31T08:53:13.385Z,718.77
2016-03-31T08:53:26.666Z,718.68
2016-03-31T08:53:39.948Z,718.79
2016-03-31T08:53:53.260Z,719.04
2016-03-31T08:54:06.544Z,718.51
2016-03-31T08:54:19.826Z,718.85
2016-03-31T08:54:33.107Z,719.35
2016-03-31T08:54:46.388Z,719.58
2016-03-31T08:54:59.669Z,719.05
2016-03-31T08:55:12.968Z,718.8
2016-03-31T08:55:26.249Z,719.19
2016-03-31T08:55:39.531Z,719
2016-03-31T08:55:52.812Z,719.01
2016-03-31T08:56:06.096Z,719.05
2016-03-31T08:56:19.362Z,719.04
2016-03-31T08:56:32.643Z,719.13
2016-03-31T08:57:56.490Z,719.06
2016-03-31T08:58:09.790Z,718.85
2016-03-31T08:58:23.087Z,719.04
2016-03-31T08:58:36.368Z,719.03
2016-03-31T08:58:49.665Z,719.28
2016-03-31T08:59:02.964Z,719.28
2016-03-31T08:59:16.260Z,719.12
2016-03-31T08:59:29.589Z,718.89
2016-03-31T08:59:42.870Z,718.76
2016-03-31T08:59:56.135Z,718.34
2016-03-31T09:00:09.435Z,719.01
2016-03-31T09:00:22.748Z,718.98
2016-03-31T09:00:36.060Z,719.21
2016-03-31T09:00:49.326Z,719.33
2016-03-31T09:01:02.595Z,719.13
2016-03-31T09:01:15.907Z,718.89
2016-03-31T09:01:29.220Z,719.2
2016-03-31T09:01:42.501Z,719.03
2016-03-31T09:01:55.766Z,719.03
2016-03-31T09:02:09.051Z,718.96
2016-03-31T09:02:22.332Z,719.11
2016-03-31T09:02:35.644Z,719.17
2016-03-31T09:02:48.879Z,718.81
2016-03-31T09:03:02.160Z,718.86
2016-03-31T09:03:15.428Z,719.23
2016-03-31T09:03:28.709Z,719.13
2016-03-31T09:03:42.037Z,718.91
2016-03-31T09:03:55.350Z,718.93
2016-03-31T09:04:08.633Z,718.92
2016-03-31T09:04:21.898Z,719.25
2016-03-31T09:04:35.180Z,719.33
2016-03-31T09:04:48.477Z,719.38
2016-03-31T09:05:01.773Z,719.07
2016-03-31T09:05:15.059Z,718.72
2016-03-31T09:05:28.324Z,718.74
2016-03-31T09:05:41.621Z,719.19
2016-03-31T09:05:54.762Z,718.69
2016-03-31T09:06:08.045Z,719.08
2016-03-31T09:06:21.311Z,719.07
2016-03-31T09:06:34.592Z,718.99
2016-03-31T09:06:47.904Z,719.09
2016-03-31T09:07:01.201Z,719.01
2016-03-31T09:07:14.328Z,719.08
2016-03-31T09:07:27.594Z,718.96
2016-03-31T09:07:40.860Z,719.2
2016-03-31T09:07:54.141Z,718.67
2016-03-31T09:08:07.441Z,718.71
2016-03-31T09:08:20.722Z,718.99
2016-03-31T09:08:33.988Z,718.86
2016-03-31T09:08:47.253Z,718.89
2016-03-31T09:09:00.550Z,719.06
2016-03-31T09:09:13.866Z,719.07
2016-03-31T09:09:27.131Z,719.11
2016-03-31T09:09:40.412Z,719.29
2016-03-31T09:09:53.678Z,718.93
2016-03-31T09:10:07.119Z,719.24
2016-03-31T09:10:20.431Z,719.36
2016-03-31T09:10:33.603Z,718.85
2016-03-31T09:10:46.900Z,718.96
2016-03-31T09:11:00.165Z,718.88
2016-03-31T09:11:13.433Z,719
2016-03-31T09:11:27.292Z,718.86
2016-03-31T09:11:41.386Z,719.21
2016-03-31T09:11:55.230Z,719.21
2016-03-31T09:12:09.452Z,719.03
2016-03-31T09:12:23.717Z,719.11
2016-03-31T09:12:37.670Z,719.16
2016-03-31T09:12:51.655Z,718.8
2016-03-31T09:13:05.423Z,718.89
2016-03-31T09:13:19.298Z,719.23
2016-03-31T09:13:33.158Z,719.25
2016-03-31T09:13:47.095Z,718.7
2016-03-31T09:14:01.017Z,718.78
2016-03-31T09:14:15.050Z,718.7
2016-03-31T09:14:29.144Z,718.65
2016-03-31T09:14:43.035Z,719.18
2016-03-31T09:14:57.004Z,719.12
2016-03-31T09:15:10.897Z,719.17
2016-03-31T09:15:25.100Z,719.16
2016-03-31T09:15:39.053Z,719.38
2016-03-31T09:15:52.991Z,718.96
2016-03-31T09:16:07.025Z,719.2
2016-03-31T09:16:20.947Z,719.62
2016-03-31T09:16:34.963Z,719.09
2016-03-31T09:16:48.869Z,719.16
2016-03-31T09:17:02.822Z,719
2016-03-31T09:17:16.575Z,718.97
2016-03-31T09:17:30.481Z,719.13
2016-03-31T09:17:44.419Z,718.98
2016-03-31T09:17:58.200Z,719.31
2016-03-31T09:18:12.047Z,719.56
2016-03-31T09:18:26.062Z,719.29
2016-03-31T09:18:39.875Z,719.17
2016-03-31T09:18:53.906Z,719.24
2016-03-31T09:19:07.689Z,719.22
2016-03-31T09:19:21.564Z,719.16
2016-03-31T09:19:35.705Z,719.14
2016-03-31T09:19:49.549Z,719.09
2016-03-31T09:20:03.505Z,719.26
2016-03-31T09:20:17.458Z,718.45
2016-03-31T09:20:31.333Z,719.11
2016-03-31T09:20:45.161Z,719.14
2016-03-31T09:20:58.942Z,718.98
2016-03-31T09:21:13.055Z,719.46
2016-03-31T09:21:26.961Z,719.22
2016-03-31T09:21:40.820Z,719.43
2016-03-31T09:21:54.899Z,719.33
2016-03-31T09:22:08.588Z,719.59
2016-03-31T09:22:24.135Z,719.77
2016-03-31T09:22:39.510Z,719.6
2016-03-31T09:22:53.713Z,719.25
2016-03-31T09:23:09.732Z,719.44
2016-03-31T09:23:24.825Z,719.36
2016-03-31T09:23:40.325Z,719.25
2016-03-31T09:23:55.404Z,719.33
2016-03-31T09:24:11.015Z,719.25
2016-03-31T09:24:26.874Z,719.1
2016-03-31T09:24:42.109Z,719.2
2016-03-31T09:24:57.999Z,718.96
2016-03-31T09:25:13.785Z,718.96
2016-03-31T09:25:28.972Z,719.13
2016-03-31T09:25:44.925Z,719.45
2016-03-31T09:26:00.519Z,719.54
2016-03-31T09:26:16.052Z,719.19
2016-03-31T09:26:31.240Z,719.27
2016-03-31T09:26:46.474Z,719.43
2016-03-31T09:27:01.771Z,719.17
2016-03-31T09:27:17.383Z,719.21
2016-03-31T09:27:33.040Z,719.43
2016-03-31T09:27:48.680Z,719.21
2016-03-31T09:28:03.918Z,719.04
2016-03-31T09:28:19.136Z,719.28
2016-03-31T09:28:34.777Z,719.66
2016-03-31T09:28:49.933Z,719.53
2016-03-31T09:29:05.341Z,719.36
2016-03-31T09:29:20.920Z,719.24
2016-03-31T09:29:36.154Z,719.24
2016-03-31T09:29:51.763Z,719.33
2016-03-31T09:30:07.829Z,719.54
2016-03-31T09:30:23.782Z,719.3
2016-03-31T09:30:39.407Z,719.35
2016-03-31T09:30:54.782Z,719.43
2016-03-31T09:31:10.034Z,719.57
2016-03-31T09:31:25.612Z,719.36
2016-03-31T09:31:40.643Z,719.49
2016-03-31T09:31:56.112Z,719.55
2016-03-31T09:32:12.224Z,719.48
2016-03-31T09:32:27.740Z,719.08
2016-03-31T09:32:43.365Z,719.27
2016-03-31T09:32:59.146Z,719.36
2016-03-31T09:33:14.556Z,719.16
2016-03-31T09:33:29.743Z,718.92
2016-03-31T09:33:45.493Z,718.96
2016-03-31T09:34:01.462Z,719.71
2016-03-31T09:34:18.230Z,719.61
2016-03-31T09:34:33.777Z,718.91
2016-03-31T09:34:49.199Z,719.5
2016-03-31T09:35:04.902Z,719.22
2016-03-31T09:35:21.076Z,719.12
2016-03-31T09:35:36.545Z,719.46
2016-03-31T09:35:52.123Z,719.24
2016-03-31T09:36:07.939Z,719.29
2016-03-31T09:36:23.360Z,719.46
2016-03-31T09:36:39.110Z,720.01
2016-03-31T09:36:54.329Z,719.46
2016-03-31T09:37:08.723Z,719.16
2016-03-31T09:37:24.129Z,719.33
2016-03-31T09:37:40.285Z,719.34
2016-03-31T09:37:55.895Z,719.43
2016-03-31T09:38:11.631Z,719.41
2016-03-31T09:38:27.694Z,719.13
2016-03-31T09:38:43.240Z,718.99
2016-03-31T09:38:59.147Z,719.82
2016-03-31T09:39:13.572Z,719.08
2016-03-31T09:39:28.743Z,719.39
2016-03-31T09:39:43.900Z,719.52
2016-03-31T09:39:59.572Z,719.53
2016-03-31T09:40:15.403Z,719.5
2016-03-31T09:40:30.981Z,719.16
2016-03-31T09:40:46.575Z,719.58
2016-03-31T09:41:02.325Z,719.63
2016-03-31T09:41:17.781Z,719.75
2016-03-31T09:41:33.671Z,719.94
2016-03-31T09:41:48.921Z,720.37
2016-03-31T09:42:04.453Z,720.22
2016-03-31T09:42:20.095Z,720.46
2016-03-31T09:42:35.470Z,720.94
2016-03-31T09:42:51.345Z,721.95
2016-03-31T09:43:07.129Z,722.78
2016-03-31T09:43:23.051Z,724.61
2016-03-31T09:43:38.114Z,726.03
2016-03-31T09:43:54.114Z,727.85
2016-03-31T09:44:09.429Z,728.25
2016-03-31T09:44:24.586Z,729.48
2016-03-31T09:44:40.445Z,731.01
2016-03-31T09:44:56.132Z,733.02
2016-03-31T09:45:11.948Z,732.57
2016-03-31T09:45:27.620Z,730.81
2016-03-31T09:45:42.870Z,731.18
2016-03-31T09:45:58.604Z,733.68
2016-03-31T09:46:14.356Z,733.17
2016-03-31T09:46:29.137Z,733.48
2016-03-31T09:46:45.450Z,733.31
2016-03-31T09:47:15.171Z,732.87
2016-03-31T09:47:30.983Z,732.44
2016-03-31T09:47:46.452Z,731.29
2016-03-31T09:48:02.030Z,731.42
2016-03-31T09:48:17.517Z,731.99
2016-03-31T09:48:32.924Z,731.92
2016-03-31T09:48:48.721Z,731.26
2016-03-31T09:49:04.127Z,731.71
2016-03-31T09:49:19.676Z,732.43
2016-03-31T09:49:35.363Z,732.81
2016-03-31T09:49:50.910Z,732.82
2016-03-31T09:50:06.598Z,732.7
2016-03-31T09:50:22.476Z,732.55
2016-03-31T09:50:38.194Z,733.38
2016-03-31T09:50:53.272Z,733.13
2016-03-31T09:51:09.088Z,732.76
2016-03-31T09:51:25.213Z,732.86
2016-03-31T09:51:40.666Z,733.18
2016-03-31T09:51:55.244Z,733.41
2016-03-31T09:52:08.513Z,732.84
2016-03-31T09:52:21.794Z,732.5
2016-03-31T09:52:34.935Z,732.23
2016-03-31T09:52:48.200Z,731.09
2016-03-31T09:53:01.497Z,730.87
2016-03-31T09:53:14.797Z,731.63
2016-03-31T09:53:28.094Z,731.38
2016-03-31T09:53:41.375Z,731.47
2016-03-31T09:53:54.656Z,731.35
2016-03-31T09:54:07.953Z,732.29
2016-03-31T09:54:21.238Z,732.76
2016-03-31T09:54:34.534Z,732.5
2016-03-31T09:54:47.800Z,732.04
2016-03-31T09:55:01.128Z,731.8
2016-03-31T09:55:14.396Z,731.99
2016-03-31T09:55:27.661Z,731.75
2016-03-31T09:55:40.974Z,731.18
2016-03-31T09:55:54.255Z,730.41
2016-03-31T09:56:07.536Z,729.91
2016-03-31T09:56:20.821Z,729.72
2016-03-31T09:56:34.086Z,730.36
2016-03-31T09:56:47.368Z,730.69
2016-03-31T09:57:00.664Z,730.68
2016-03-31T09:57:13.933Z,728.86
2016-03-31T09:57:27.214Z,730.84
2016-03-31T09:57:40.496Z,731.25
2016-03-31T09:57:53.808Z,731.23
2016-03-31T09:58:07.089Z,731.72
2016-03-31T09:58:20.373Z,730.53
2016-03-31T09:58:33.638Z,728.15
2016-03-31T09:58:46.935Z,727.97